Higman Tradition — WDI2368 — position and weather

sailwx.info

Track history (hours):
 
Tides and Currents Weather Stations Pressure Air Temp Water Temp Dewpoint Dewpoint Depression Visibility Wind Speed Wind Dir Waves Ship Positions

Higman Tradition

Owner: Higman Barge Lines, Inc., Orange, TX. More information available from US FCC via Universal Licensing System and Coast Guard Vessel Documentation Center.

Last reported at 2018-Jul-21 15:31 UTC. Time now 2018-Jul-21 15:37 UTC.
Position N 29°34' W 094°55'.

Length 176 m; draft 2.6 m.

Type: . MMSI: 367677440.

Date/timePositionNaut miles runAvg speedWind from/ knotsBaromVisibWave heightAir tempDewpointWater temp
2018-Jul-21 15:31N 29°34' W 094°55'4 7.8
2018-Jul-21 15:00N 29°31' W 094°53'4 7.8
2018-Jul-21 14:30N 29°28' W 094°51'6 6.1
2018-Jul-21 13:30N 29°23' W 094°47'2 4.9
2018-Jul-21 13:01N 29°24' W 094°45'3 6.2
2018-Jul-21 12:31N 29°27' W 094°42'3 6.0
2018-Jul-21 12:00N 29°28' W 094°39'3 6.2
2018-Jul-21 11:30N 29°29' W 094°36'3 6.1
2018-Jul-21 10:59N 29°30' W 094°32'3 6.0
2018-Jul-21 10:30N 29°32' W 094°29'1 1.2
2018-Jul-21 10:00N 29°32' W 094°29'2 3.2
2018-Jul-21 09:30N 29°33' W 094°28'2 4.6
2018-Jul-21 09:00N 29°34' W 094°25'2 4.0
2018-Jul-21 08:30N 29°36' W 094°24'2 3.7
2018-Jul-21 08:00N 29°36' W 094°22'3 5.6
2018-Jul-21 07:30N 29°38' W 094°19'3 5.8
2018-Jul-21 07:00N 29°39' W 094°16'3 5.8
2018-Jul-21 06:30N 29°40' W 094°13'3 5.9
2018-Jul-21 06:00N 29°41' W 094°10'3 5.4
2018-Jul-21 05:30N 29°43' W 094°07'3 5.8
2018-Jul-21 05:00N 29°45' W 094°05'3 5.7
2018-Jul-21 04:30N 29°46' W 094°02'3 5.7
2018-Jul-21 04:00N 29°48' W 093°60'2 4.3
2018-Jul-21 03:30N 29°49' W 093°58'3 5.9
2018-Jul-21 03:00N 29°52' W 093°56'3 6.5
2018-Jul-21 02:31N 29°55' W 093°54'3 6.4
2018-Jul-21 02:00N 29°57' W 093°52'1 2.3
2018-Jul-21 01:29N 29°58' W 093°51'0 0.0
2018-Jul-21 01:00N 29°58' W 093°51'0 0.0
2018-Jul-21 00:30N 29°58' W 093°51'0 0.4
2018-Jul-21 00:00N 29°58' W 093°51'1 2.0
2018-Jul-20 23:30N 29°59' W 093°50'3 5.6
2018-Jul-20 23:01N 29°60' W 093°47'0 0.0
2018-Jul-20 22:30N 29°60' W 093°47'2 4.1
2018-Jul-20 22:00N 30°01' W 093°45'3 5.9
2018-Jul-20 21:30N 30°03' W 093°42'3 6.2
2018-Jul-20 21:00N 30°04' W 093°39'3 5.6
2018-Jul-20 20:28N 30°04' W 093°35'2 4.9
2018-Jul-20 20:00N 30°04' W 093°33'3 5.8
2018-Jul-20 19:31N 30°04' W 093°30'3 5.6
2018-Jul-20 19:00N 30°04' W 093°26'3 5.2
2018-Jul-20 18:30N 30°04' W 093°23'1 2.4
2018-Jul-20 18:01N 30°04' W 093°22'0 0.0
2018-Jul-20 17:30N 30°04' W 093°22'0 0.0
2018-Jul-20 16:59N 30°04' W 093°22'0 0.0
2018-Jul-20 16:30N 30°04' W 093°22'0 0.1
2018-Jul-20 16:01N 30°04' W 093°22'2 4.0
2018-Jul-20 15:30N 30°05' W 093°20'2 4.9
2018-Jul-20 15:00N 30°07' W 093°20'3 5.7
2018-Jul-20 14:30N 30°10' W 093°19'3 6.1
2018-Jul-20 14:00N 30°12' W 093°17'2 2.6
2018-Jul-20 13:17N 30°14' W 093°15'0 0.6
2018-Jul-20 13:01N 30°14' W 093°15'0 0.0
2018-Jul-20 12:29N 30°14' W 093°15'0 0.0
2018-Jul-20 12:00N 30°14' W 093°15'0 0.0
2018-Jul-20 11:30N 30°14' W 093°15'0 0.0
2018-Jul-20 10:57N 30°14' W 093°15'0 0.0
2018-Jul-20 10:30N 30°14' W 093°15'0 0.0
2018-Jul-20 10:00N 30°14' W 093°15'0 0.0
2018-Jul-20 09:30N 30°14' W 093°15'0 0.0
2018-Jul-20 09:00N 30°14' W 093°15'0 0.0
2018-Jul-20 08:30N 30°14' W 093°15'0 0.0
2018-Jul-20 07:54N 30°14' W 093°15'0 0.0
2018-Jul-20 07:30N 30°14' W 093°15'0 0.0
2018-Jul-20 07:00N 30°14' W 093°15'0 0.0
2018-Jul-20 06:30N 30°14' W 093°15'0 0.0
2018-Jul-20 06:00N 30°14' W 093°15'0 0.0
2018-Jul-20 05:30N 30°14' W 093°15'0 0.0
2018-Jul-20 04:57N 30°14' W 093°15'0 0.0
2018-Jul-20 04:30N 30°14' W 093°15'0 0.0
2018-Jul-20 04:00N 30°14' W 093°15'0 0.0
2018-Jul-20 03:30N 30°14' W 093°15'0 0.0
2018-Jul-20 03:00N 30°14' W 093°15'0 0.0
2018-Jul-20 02:30N 30°14' W 093°15'0 0.0
2018-Jul-20 02:00N 30°14' W 093°15'0 0.0
2018-Jul-20 01:30N 30°14' W 093°15'0 0.0
2018-Jul-20 00:54N 30°14' W 093°15'0 0.0
2018-Jul-20 00:30N 30°14' W 093°15'0 0.0
2018-Jul-20 00:00N 30°14' W 093°15'0 0.0
2018-Jul-19 23:30N 30°14' W 093°15'0 0.0
2018-Jul-19 23:00N 30°14' W 093°15'0 0.0
2018-Jul-19 22:30N 30°14' W 093°15'0 0.0
2018-Jul-19 22:00N 30°14' W 093°15'0 0.0
2018-Jul-19 21:30N 30°14' W 093°15'0 0.0
2018-Jul-19 21:00N 30°14' W 093°15'0 0.0
2018-Jul-19 20:30N 30°14' W 093°15'0 0.0
2018-Jul-19 20:00N 30°14' W 093°15'0 0.0
2018-Jul-19 19:30N 30°14' W 093°15'0 0.0
2018-Jul-19 19:00N 30°14' W 093°15'0 0.0
2018-Jul-19 18:30N 30°14' W 093°15'0 0.0
2018-Jul-19 18:00N 30°14' W 093°15'0 0.0
2018-Jul-19 17:30N 30°14' W 093°15'0 0.0
2018-Jul-19 17:00N 30°14' W 093°15'0 0.0
2018-Jul-19 16:27N 30°14' W 093°15'0 0.0
2018-Jul-19 16:00N 30°14' W 093°15'0 0.0
2018-Jul-19 15:27N 30°14' W 093°15'0 0.0
2018-Jul-19 14:57N 30°14' W 093°15'0 0.0
2018-Jul-19 14:00N 30°14' W 093°15'0 0.0
2018-Jul-19 13:30N 30°14' W 093°15'0 0.0
2018-Jul-19 13:00N 30°14' W 093°15'0 0.0
2018-Jul-19 12:30N 30°14' W 093°15'0 0.0
2018-Jul-19 12:00N 30°14' W 093°15'0 0.0
2018-Jul-19 11:30N 30°14' W 093°15'0 0.0
2018-Jul-19 11:00N 30°14' W 093°15'0 0.0
2018-Jul-19 10:30N 30°14' W 093°15'0 0.0
2018-Jul-19 10:00N 30°14' W 093°15'0 0.0
2018-Jul-19 09:30N 30°14' W 093°15'0 0.0
2018-Jul-19 09:00N 30°14' W 093°15'0 0.0
2018-Jul-19 08:30N 30°14' W 093°15'0 0.0
2018-Jul-19 08:00N 30°14' W 093°15'0 0.0
2018-Jul-19 07:30N 30°14' W 093°15'0 0.0
2018-Jul-19 07:00N 30°14' W 093°15'0 0.0
2018-Jul-19 06:27N 30°14' W 093°15'0 0.0
2018-Jul-19 05:57N 30°14' W 093°15'0 0.0
2018-Jul-19 05:30N 30°14' W 093°15'0 0.0
2018-Jul-19 05:00N 30°14' W 093°15'0 0.0
2018-Jul-19 04:27N 30°14' W 093°15'0 0.0
2018-Jul-19 03:57N 30°14' W 093°15'0 0.0
2018-Jul-19 03:30N 30°14' W 093°15'0 0.0
2018-Jul-19 03:00N 30°14' W 093°15'0 0.0
2018-Jul-19 02:30N 30°14' W 093°15'0 0.1
2018-Jul-19 02:00N 30°14' W 093°15'0 0.7
2018-Jul-19 01:30N 30°14' W 093°16'0 0.0
2018-Jul-19 01:00N 30°14' W 093°16'0 0.0
2018-Jul-19 00:30N 30°14' W 093°16'0 0.0
2018-Jul-19 00:00N 30°14' W 093°16'0 0.0
2018-Jul-18 23:30N 30°14' W 093°16'0 0.0
2018-Jul-18 23:00N 30°14' W 093°16'0 0.0
2018-Jul-18 22:30N 30°14' W 093°16'0 0.0
2018-Jul-18 22:00N 30°14' W 093°16'0 0.0
2018-Jul-18 21:30N 30°14' W 093°16'0 0.0
2018-Jul-18 21:00N 30°14' W 093°16'0 0.0
2018-Jul-18 20:30N 30°14' W 093°16'0 0.0
2018-Jul-18 20:00N 30°14' W 093°16'0 0.0
2018-Jul-18 19:30N 30°14' W 093°16'0 0.0
2018-Jul-18 19:00N 30°14' W 093°16'0 0.0
2018-Jul-18 18:30N 30°14' W 093°16'0 0.0
2018-Jul-18 18:00N 30°14' W 093°16'0 0.0
2018-Jul-18 17:30N 30°14' W 093°16'0 0.0
2018-Jul-18 16:59N 30°14' W 093°16'0 0.0
2018-Jul-18 16:30N 30°14' W 093°16'0 0.0
2018-Jul-18 16:00N 30°14' W 093°16'0 0.0
2018-Jul-18 15:30N 30°14' W 093°16'0 0.0
2018-Jul-18 15:00N 30°14' W 093°16'0 0.0
2018-Jul-18 14:30N 30°14' W 093°16'0 0.0
2018-Jul-18 13:29N 30°14' W 093°16'0 0.0
2018-Jul-18 13:00N 30°14' W 093°16'0 0.0
2018-Jul-18 12:30N 30°14' W 093°16'0 0.0
2018-Jul-18 12:00N 30°14' W 093°16'0 0.0
2018-Jul-18 11:29N 30°14' W 093°16'0 0.0
2018-Jul-18 10:29N 30°14' W 093°16'0 0.0
2018-Jul-18 09:59N 30°14' W 093°16'0 0.0
2018-Jul-18 09:30N 30°14' W 093°16'0 0.0
2018-Jul-18 09:00N 30°14' W 093°16'0 0.0
2018-Jul-18 08:27N 30°14' W 093°16'0 0.0
2018-Jul-18 08:00N 30°14' W 093°16'0 0.0
2018-Jul-18 07:30N 30°14' W 093°16'0 0.0
2018-Jul-18 06:58N 30°14' W 093°16'0 0.0
2018-Jul-18 06:30N 30°14' W 093°16'0 0.0
2018-Jul-18 06:00N 30°14' W 093°16'0 0.0
2018-Jul-18 05:29N 30°14' W 093°16'0 0.0
2018-Jul-18 04:57N 30°14' W 093°16'0 0.0
2018-Jul-18 04:29N 30°14' W 093°16'0 0.0
2018-Jul-18 03:58N 30°14' W 093°16'0 0.0
2018-Jul-18 03:30N 30°14' W 093°16'0 0.0
2018-Jul-18 03:00N 30°14' W 093°16'0 0.0
2018-Jul-18 02:30N 30°14' W 093°16'0 0.0
2018-Jul-18 01:56N 30°14' W 093°16'0 0.0
2018-Jul-18 01:30N 30°14' W 093°16'0 0.0
2018-Jul-18 01:00N 30°14' W 093°16'0 0.0
2018-Jul-18 00:30N 30°14' W 093°16'0 0.0
2018-Jul-18 00:00N 30°14' W 093°16'0 0.0
2018-Jul-17 23:30N 30°14' W 093°16'0 0.0
2018-Jul-17 23:00N 30°14' W 093°16'0 0.0
2018-Jul-17 22:30N 30°14' W 093°16'0 0.0
2018-Jul-17 22:00N 30°14' W 093°16'0 0.0
2018-Jul-17 21:29N 30°14' W 093°16'0 0.0
2018-Jul-17 21:00N 30°14' W 093°16'0 0.0
2018-Jul-17 20:30N 30°14' W 093°16'0 0.0
2018-Jul-17 20:00N 30°14' W 093°16'0 0.0
2018-Jul-17 19:30N 30°14' W 093°16'0 0.0
2018-Jul-17 19:00N 30°14' W 093°16'0 0.0
2018-Jul-17 18:30N 30°14' W 093°16'0 0.0
2018-Jul-17 17:59N 30°14' W 093°16'0 0.0
2018-Jul-17 17:30N 30°14' W 093°16'0 0.0
2018-Jul-17 17:00N 30°14' W 093°16'0 0.0
2018-Jul-17 16:30N 30°14' W 093°16'0 0.0
2018-Jul-17 16:00N 30°14' W 093°16'0 0.0
2018-Jul-17 15:30N 30°14' W 093°16'0 0.0
2018-Jul-17 15:00N 30°14' W 093°16'0 0.0
2018-Jul-17 14:30N 30°14' W 093°16'0 0.0
2018-Jul-17 13:57N 30°14' W 093°16'0 0.0
2018-Jul-17 13:30N 30°14' W 093°16'0 0.0
2018-Jul-17 12:59N 30°14' W 093°16'0 0.0
2018-Jul-17 12:30N 30°14' W 093°16'0 0.0
2018-Jul-17 12:00N 30°14' W 093°16'0 0.0
2018-Jul-17 11:29N 30°14' W 093°16'0 0.0
2018-Jul-17 11:00N 30°14' W 093°16'0 0.0
2018-Jul-17 10:30N 30°14' W 093°16'0 0.0
2018-Jul-17 09:59N 30°14' W 093°16'0 0.0
2018-Jul-17 09:30N 30°14' W 093°16'0 0.0
2018-Jul-17 09:00N 30°14' W 093°16'0 0.0
2018-Jul-17 08:30N 30°14' W 093°16'0 0.0
2018-Jul-17 08:00N 30°14' W 093°16'0 0.0
2018-Jul-17 07:28N 30°14' W 093°16'0 0.0
2018-Jul-17 07:00N 30°14' W 093°16'0 0.0
2018-Jul-17 06:30N 30°14' W 093°16'0 0.0
2018-Jul-17 06:00N 30°14' W 093°16'0 0.0
2018-Jul-17 05:20N 30°14' W 093°16'0 0.0
2018-Jul-17 05:00N 30°14' W 093°16'0 0.0
2018-Jul-17 04:18N 30°14' W 093°16'0 0.0
2018-Jul-17 03:29N 30°14' W 093°16'0 0.0
2018-Jul-17 03:00N 30°14' W 093°16'0 0.1
2018-Jul-17 02:30N 30°14' W 093°16'0 0.0
2018-Jul-17 02:00N 30°14' W 093°16'0 0.0
2018-Jul-17 01:30N 30°14' W 093°16'0 0.0
2018-Jul-17 01:00N 30°14' W 093°16'1 1.4
2018-Jul-17 00:30N 30°13' W 093°16'5 4.7
2018-Jul-16 23:30N 30°09' W 093°20'1 2.4
2018-Jul-16 23:00N 30°08' W 093°20'1 2.5
2018-Jul-16 22:30N 30°07' W 093°20'2 4.7
2018-Jul-16 22:00N 30°05' W 093°20'2 3.7
2018-Jul-16 21:30N 30°04' W 093°22'2 4.0
2018-Jul-16 21:00N 30°04' W 093°24'2 3.7
2018-Jul-16 20:30N 30°04' W 093°26'2 3.7
2018-Jul-16 20:00N 30°04' W 093°28'2 3.7
2018-Jul-16 19:30N 30°04' W 093°31'2 3.1
2018-Jul-16 19:00N 30°04' W 093°32'3 5.2
2018-Jul-16 18:30N 30°04' W 093°35'3 5.6
2018-Jul-16 18:00N 30°04' W 093°39'3 6.0
2018-Jul-16 17:30N 30°03' W 093°42'1 2.8
2018-Jul-16 17:00N 30°03' W 093°44'3 6.2
2018-Jul-16 16:30N 30°00' W 093°46'3 7.0
2018-Jul-16 16:00N 29°59' W 093°49'3 5.2
2018-Jul-16 15:30N 29°57' W 093°52'4 8.0
2018-Jul-16 15:00N 29°54' W 093°54'4 8.3
2018-Jul-16 14:30N 29°50' W 093°57'2 3.7
2018-Jul-16 14:00N 29°49' W 093°59'2 3.6
2018-Jul-16 13:30N 29°48' W 094°00'2 4.5
2018-Jul-16 13:00N 29°46' W 094°02'2 4.5
2018-Jul-16 12:30N 29°45' W 094°04'2 4.6
2018-Jul-16 12:00N 29°44' W 094°06'2 4.5
2018-Jul-16 11:30N 29°42' W 094°08'2 4.5
2018-Jul-16 11:00N 29°41' W 094°11'2 4.7
2018-Jul-16 10:31N 29°40' W 094°13'2 4.7
2018-Jul-16 10:01N 29°39' W 094°15'2 4.7
2018-Jul-16 09:30N 29°38' W 094°18'2 4.7
2018-Jul-16 09:00N 29°37' W 094°20'2 4.7
2018-Jul-16 08:29N 29°36' W 094°23'2 4.1
2018-Jul-16 08:00N 29°35' W 094°25'2 3.8
2018-Jul-16 07:28N 29°34' W 094°26'2 4.4
2018-Jul-16 06:59N 29°33' W 094°28'2 4.4
2018-Jul-16 06:30N 29°31' W 094°30'1 2.7
2018-Jul-16 06:00N 29°31' W 094°32'1 1.1
2018-Jul-16 05:29N 29°30' W 094°32'2 4.8
2018-Jul-16 05:00N 29°30' W 094°35'2 3.9
2018-Jul-16 04:25N 29°29' W 094°37'2 3.4
2018-Jul-16 03:57N 29°28' W 094°39'3 4.6
2018-Jul-16 03:18N 29°27' W 094°42'2 4.3
2018-Jul-16 02:55N 29°26' W 094°43'1 3.1
2018-Jul-16 02:28N 29°25' W 094°44'2 3.6
2018-Jul-16 02:00N 29°23' W 094°46'3 5.1
2018-Jul-16 01:30N 29°22' W 094°48'3 6.4
2018-Jul-16 00:59N 29°20' W 094°51'3 6.4
2018-Jul-16 00:30N 29°17' W 094°53'3 5.4
2018-Jul-16 00:00N 29°17' W 094°57'2 4.0
2018-Jul-15 23:30N 29°17' W 094°59'0 0.4
2018-Jul-15 23:00N 29°16' W 094°59'1 2.3
2018-Jul-15 22:30N 29°16' W 094°60'3 5.2
2018-Jul-15 22:00N 29°14' W 095°02'2 4.9
2018-Jul-15 21:30N 29°12' W 095°04'3 5.3
2018-Jul-15 21:00N 29°10' W 095°06'3 5.5
2018-Jul-15 20:30N 29°09' W 095°09'3 5.4
2018-Jul-15 20:00N 29°07' W 095°11'2 4.4
2018-Jul-15 19:30N 29°05' W 095°12'2 3.3
2018-Jul-15 19:00N 29°04' W 095°13'2 5.0
2018-Jul-15 18:30N 29°01' W 095°14'3 5.4
2018-Jul-15 18:00N 28°59' W 095°16'3 4.7
2018-Jul-15 17:23N 28°57' W 095°18'5 2.9
2018-Jul-15 15:41N 28°54' W 095°23'1 0.6
2018-Jul-15 14:39N 28°54' W 095°23'  
Track history (hours):
 
Tides and Currents Weather Stations Pressure Air Temp Water Temp Dewpoint Dewpoint Depression Visibility Wind Speed Wind Dir Waves Ship Positions

Higman Tradition

Owner: Higman Barge Lines, Inc., Orange, TX. More information available from US FCC via Universal Licensing System and Coast Guard Vessel Documentation Center.

Last reported at 2018-Jul-21 15:31 UTC. Time now 2018-Jul-21 15:37 UTC.
Position N 29°34' W 094°55'.

Length 176 m; draft 2.6 m.

Type: . MMSI: 367677440.

Date/timePositionNaut miles runAvg speedWind from/ knotsBaromVisibWave heightAir tempDewpointWater temp
2018-Jul-21 15:31N 29°34' W 094°55'4 7.8
2018-Jul-21 15:00N 29°31' W 094°53'4 7.8
2018-Jul-21 14:30N 29°28' W 094°51'6 6.1
2018-Jul-21 13:30N 29°23' W 094°47'2 4.9
2018-Jul-21 13:01N 29°24' W 094°45'3 6.2
2018-Jul-21 12:31N 29°27' W 094°42'3 6.0
2018-Jul-21 12:00N 29°28' W 094°39'3 6.2
2018-Jul-21 11:30N 29°29' W 094°36'3 6.1
2018-Jul-21 10:59N 29°30' W 094°32'3 6.0
2018-Jul-21 10:30N 29°32' W 094°29'1 1.2
2018-Jul-21 10:00N 29°32' W 094°29'2 3.2
2018-Jul-21 09:30N 29°33' W 094°28'2 4.6
2018-Jul-21 09:00N 29°34' W 094°25'2 4.0
2018-Jul-21 08:30N 29°36' W 094°24'2 3.7
2018-Jul-21 08:00N 29°36' W 094°22'3 5.6
2018-Jul-21 07:30N 29°38' W 094°19'3 5.8
2018-Jul-21 07:00N 29°39' W 094°16'3 5.8
2018-Jul-21 06:30N 29°40' W 094°13'3 5.9
2018-Jul-21 06:00N 29°41' W 094°10'3 5.4
2018-Jul-21 05:30N 29°43' W 094°07'3 5.8
2018-Jul-21 05:00N 29°45' W 094°05'3 5.7
2018-Jul-21 04:30N 29°46' W 094°02'3 5.7
2018-Jul-21 04:00N 29°48' W 093°60'2 4.3
2018-Jul-21 03:30N 29°49' W 093°58'3 5.9
2018-Jul-21 03:00N 29°52' W 093°56'3 6.5
2018-Jul-21 02:31N 29°55' W 093°54'3 6.4
2018-Jul-21 02:00N 29°57' W 093°52'1 2.3
2018-Jul-21 01:29N 29°58' W 093°51'0 0.0
2018-Jul-21 01:00N 29°58' W 093°51'0 0.0
2018-Jul-21 00:30N 29°58' W 093°51'0 0.4
2018-Jul-21 00:00N 29°58' W 093°51'1 2.0
2018-Jul-20 23:30N 29°59' W 093°50'3 5.6
2018-Jul-20 23:01N 29°60' W 093°47'0 0.0
2018-Jul-20 22:30N 29°60' W 093°47'2 4.1
2018-Jul-20 22:00N 30°01' W 093°45'3 5.9
2018-Jul-20 21:30N 30°03' W 093°42'3 6.2
2018-Jul-20 21:00N 30°04' W 093°39'3 5.6
2018-Jul-20 20:28N 30°04' W 093°35'2 4.9
2018-Jul-20 20:00N 30°04' W 093°33'3 5.8
2018-Jul-20 19:31N 30°04' W 093°30'3 5.6
2018-Jul-20 19:00N 30°04' W 093°26'3 5.2
2018-Jul-20 18:30N 30°04' W 093°23'1 2.4
2018-Jul-20 18:01N 30°04' W 093°22'0 0.0
2018-Jul-20 17:30N 30°04' W 093°22'0 0.0
2018-Jul-20 16:59N 30°04' W 093°22'0 0.0
2018-Jul-20 16:30N 30°04' W 093°22'0 0.1
2018-Jul-20 16:01N 30°04' W 093°22'2 4.0
2018-Jul-20 15:30N 30°05' W 093°20'2 4.9
2018-Jul-20 15:00N 30°07' W 093°20'3 5.7
2018-Jul-20 14:30N 30°10' W 093°19'3 6.1
2018-Jul-20 14:00N 30°12' W 093°17'2 2.6
2018-Jul-20 13:17N 30°14' W 093°15'0 0.6
2018-Jul-20 13:01N 30°14' W 093°15'0 0.0
2018-Jul-20 12:29N 30°14' W 093°15'0 0.0
2018-Jul-20 12:00N 30°14' W 093°15'0 0.0
2018-Jul-20 11:30N 30°14' W 093°15'0 0.0
2018-Jul-20 10:57N 30°14' W 093°15'0 0.0
2018-Jul-20 10:30N 30°14' W 093°15'0 0.0
2018-Jul-20 10:00N 30°14' W 093°15'0 0.0
2018-Jul-20 09:30N 30°14' W 093°15'0 0.0
2018-Jul-20 09:00N 30°14' W 093°15'0 0.0
2018-Jul-20 08:30N 30°14' W 093°15'0 0.0
2018-Jul-20 07:54N 30°14' W 093°15'0 0.0
2018-Jul-20 07:30N 30°14' W 093°15'0 0.0
2018-Jul-20 07:00N 30°14' W 093°15'0 0.0
2018-Jul-20 06:30N 30°14' W 093°15'0 0.0
2018-Jul-20 06:00N 30°14' W 093°15'0 0.0
2018-Jul-20 05:30N 30°14' W 093°15'0 0.0
2018-Jul-20 04:57N 30°14' W 093°15'0 0.0
2018-Jul-20 04:30N 30°14' W 093°15'0 0.0
2018-Jul-20 04:00N 30°14' W 093°15'0 0.0
2018-Jul-20 03:30N 30°14' W 093°15'0 0.0
2018-Jul-20 03:00N 30°14' W 093°15'0 0.0
2018-Jul-20 02:30N 30°14' W 093°15'0 0.0
2018-Jul-20 02:00N 30°14' W 093°15'0 0.0
2018-Jul-20 01:30N 30°14' W 093°15'0 0.0
2018-Jul-20 00:54N 30°14' W 093°15'0 0.0
2018-Jul-20 00:30N 30°14' W 093°15'0 0.0
2018-Jul-20 00:00N 30°14' W 093°15'0 0.0
2018-Jul-19 23:30N 30°14' W 093°15'0 0.0
2018-Jul-19 23:00N 30°14' W 093°15'0 0.0
2018-Jul-19 22:30N 30°14' W 093°15'0 0.0
2018-Jul-19 22:00N 30°14' W 093°15'0 0.0
2018-Jul-19 21:30N 30°14' W 093°15'0 0.0
2018-Jul-19 21:00N 30°14' W 093°15'0 0.0
2018-Jul-19 20:30N 30°14' W 093°15'0 0.0
2018-Jul-19 20:00N 30°14' W 093°15'0 0.0
2018-Jul-19 19:30N 30°14' W 093°15'0 0.0
2018-Jul-19 19:00N 30°14' W 093°15'0 0.0
2018-Jul-19 18:30N 30°14' W 093°15'0 0.0
2018-Jul-19 18:00N 30°14' W 093°15'0 0.0
2018-Jul-19 17:30N 30°14' W 093°15'0 0.0
2018-Jul-19 17:00N 30°14' W 093°15'0 0.0
2018-Jul-19 16:27N 30°14' W 093°15'0 0.0
2018-Jul-19 16:00N 30°14' W 093°15'0 0.0
2018-Jul-19 15:27N 30°14' W 093°15'0 0.0
2018-Jul-19 14:57N 30°14' W 093°15'0 0.0
2018-Jul-19 14:00N 30°14' W 093°15'0 0.0
2018-Jul-19 13:30N 30°14' W 093°15'0 0.0
2018-Jul-19 13:00N 30°14' W 093°15'0 0.0
2018-Jul-19 12:30N 30°14' W 093°15'0 0.0
2018-Jul-19 12:00N 30°14' W 093°15'0 0.0
2018-Jul-19 11:30N 30°14' W 093°15'0 0.0
2018-Jul-19 11:00N 30°14' W 093°15'0 0.0
2018-Jul-19 10:30N 30°14' W 093°15'0 0.0
2018-Jul-19 10:00N 30°14' W 093°15'0 0.0
2018-Jul-19 09:30N 30°14' W 093°15'0 0.0
2018-Jul-19 09:00N 30°14' W 093°15'0 0.0
2018-Jul-19 08:30N 30°14' W 093°15'0 0.0
2018-Jul-19 08:00N 30°14' W 093°15'0 0.0
2018-Jul-19 07:30N 30°14' W 093°15'0 0.0
2018-Jul-19 07:00N 30°14' W 093°15'0 0.0
2018-Jul-19 06:27N 30°14' W 093°15'0 0.0
2018-Jul-19 05:57N 30°14' W 093°15'0 0.0
2018-Jul-19 05:30N 30°14' W 093°15'0 0.0
2018-Jul-19 05:00N 30°14' W 093°15'0 0.0
2018-Jul-19 04:27N 30°14' W 093°15'0 0.0
2018-Jul-19 03:57N 30°14' W 093°15'0 0.0
2018-Jul-19 03:30N 30°14' W 093°15'0 0.0
2018-Jul-19 03:00N 30°14' W 093°15'0 0.0
2018-Jul-19 02:30N 30°14' W 093°15'0 0.1
2018-Jul-19 02:00N 30°14' W 093°15'0 0.7
2018-Jul-19 01:30N 30°14' W 093°16'0 0.0
2018-Jul-19 01:00N 30°14' W 093°16'0 0.0
2018-Jul-19 00:30N 30°14' W 093°16'0 0.0
2018-Jul-19 00:00N 30°14' W 093°16'0 0.0
2018-Jul-18 23:30N 30°14' W 093°16'0 0.0
2018-Jul-18 23:00N 30°14' W 093°16'0 0.0
2018-Jul-18 22:30N 30°14' W 093°16'0 0.0
2018-Jul-18 22:00N 30°14' W 093°16'0 0.0
2018-Jul-18 21:30N 30°14' W 093°16'0 0.0
2018-Jul-18 21:00N 30°14' W 093°16'0 0.0
2018-Jul-18 20:30N 30°14' W 093°16'0 0.0
2018-Jul-18 20:00N 30°14' W 093°16'0 0.0
2018-Jul-18 19:30N 30°14' W 093°16'0 0.0
2018-Jul-18 19:00N 30°14' W 093°16'0 0.0
2018-Jul-18 18:30N 30°14' W 093°16'0 0.0
2018-Jul-18 18:00N 30°14' W 093°16'0 0.0
2018-Jul-18 17:30N 30°14' W 093°16'0 0.0
2018-Jul-18 16:59N 30°14' W 093°16'0 0.0
2018-Jul-18 16:30N 30°14' W 093°16'0 0.0
2018-Jul-18 16:00N 30°14' W 093°16'0 0.0
2018-Jul-18 15:30N 30°14' W 093°16'0 0.0
2018-Jul-18 15:00N 30°14' W 093°16'0 0.0
2018-Jul-18 14:30N 30°14' W 093°16'0 0.0
2018-Jul-18 13:29N 30°14' W 093°16'0 0.0
2018-Jul-18 13:00N 30°14' W 093°16'0 0.0
2018-Jul-18 12:30N 30°14' W 093°16'0 0.0
2018-Jul-18 12:00N 30°14' W 093°16'0 0.0
2018-Jul-18 11:29N 30°14' W 093°16'0 0.0
2018-Jul-18 10:29N 30°14' W 093°16'0 0.0
2018-Jul-18 09:59N 30°14' W 093°16'0 0.0
2018-Jul-18 09:30N 30°14' W 093°16'0 0.0
2018-Jul-18 09:00N 30°14' W 093°16'0 0.0
2018-Jul-18 08:27N 30°14' W 093°16'0 0.0
2018-Jul-18 08:00N 30°14' W 093°16'0 0.0
2018-Jul-18 07:30N 30°14' W 093°16'0 0.0
2018-Jul-18 06:58N 30°14' W 093°16'0 0.0
2018-Jul-18 06:30N 30°14' W 093°16'0 0.0
2018-Jul-18 06:00N 30°14' W 093°16'0 0.0
2018-Jul-18 05:29N 30°14' W 093°16'0 0.0
2018-Jul-18 04:57N 30°14' W 093°16'0 0.0
2018-Jul-18 04:29N 30°14' W 093°16'0 0.0
2018-Jul-18 03:58N 30°14' W 093°16'0 0.0
2018-Jul-18 03:30N 30°14' W 093°16'0 0.0
2018-Jul-18 03:00N 30°14' W 093°16'0 0.0
2018-Jul-18 02:30N 30°14' W 093°16'0 0.0
2018-Jul-18 01:56N 30°14' W 093°16'0 0.0
2018-Jul-18 01:30N 30°14' W 093°16'0 0.0
2018-Jul-18 01:00N 30°14' W 093°16'0 0.0
2018-Jul-18 00:30N 30°14' W 093°16'0 0.0
2018-Jul-18 00:00N 30°14' W 093°16'0 0.0
2018-Jul-17 23:30N 30°14' W 093°16'0 0.0
2018-Jul-17 23:00N 30°14' W 093°16'0 0.0
2018-Jul-17 22:30N 30°14' W 093°16'0 0.0
2018-Jul-17 22:00N 30°14' W 093°16'0 0.0
2018-Jul-17 21:29N 30°14' W 093°16'0 0.0
2018-Jul-17 21:00N 30°14' W 093°16'0 0.0
2018-Jul-17 20:30N 30°14' W 093°16'0 0.0
2018-Jul-17 20:00N 30°14' W 093°16'0 0.0
2018-Jul-17 19:30N 30°14' W 093°16'0 0.0
2018-Jul-17 19:00N 30°14' W 093°16'0 0.0
2018-Jul-17 18:30N 30°14' W 093°16'0 0.0
2018-Jul-17 17:59N 30°14' W 093°16'0 0.0
2018-Jul-17 17:30N 30°14' W 093°16'0 0.0
2018-Jul-17 17:00N 30°14' W 093°16'0 0.0
2018-Jul-17 16:30N 30°14' W 093°16'0 0.0
2018-Jul-17 16:00N 30°14' W 093°16'0 0.0
2018-Jul-17 15:30N 30°14' W 093°16'0 0.0
2018-Jul-17 15:00N 30°14' W 093°16'0 0.0
2018-Jul-17 14:30N 30°14' W 093°16'0 0.0
2018-Jul-17 13:57N 30°14' W 093°16'0 0.0
2018-Jul-17 13:30N 30°14' W 093°16'0 0.0
2018-Jul-17 12:59N 30°14' W 093°16'0 0.0
2018-Jul-17 12:30N 30°14' W 093°16'0 0.0
2018-Jul-17 12:00N 30°14' W 093°16'0 0.0
2018-Jul-17 11:29N 30°14' W 093°16'0 0.0
2018-Jul-17 11:00N 30°14' W 093°16'0 0.0
2018-Jul-17 10:30N 30°14' W 093°16'0 0.0
2018-Jul-17 09:59N 30°14' W 093°16'0 0.0
2018-Jul-17 09:30N 30°14' W 093°16'0 0.0
2018-Jul-17 09:00N 30°14' W 093°16'0 0.0
2018-Jul-17 08:30N 30°14' W 093°16'0 0.0
2018-Jul-17 08:00N 30°14' W 093°16'0 0.0
2018-Jul-17 07:28N 30°14' W 093°16'0 0.0
2018-Jul-17 07:00N 30°14' W 093°16'0 0.0
2018-Jul-17 06:30N 30°14' W 093°16'0 0.0
2018-Jul-17 06:00N 30°14' W 093°16'0 0.0
2018-Jul-17 05:20N 30°14' W 093°16'0 0.0
2018-Jul-17 05:00N 30°14' W 093°16'0 0.0
2018-Jul-17 04:18N 30°14' W 093°16'0 0.0
2018-Jul-17 03:29N 30°14' W 093°16'0 0.0
2018-Jul-17 03:00N 30°14' W 093°16'0 0.1
2018-Jul-17 02:30N 30°14' W 093°16'0 0.0
2018-Jul-17 02:00N 30°14' W 093°16'0 0.0
2018-Jul-17 01:30N 30°14' W 093°16'0 0.0
2018-Jul-17 01:00N 30°14' W 093°16'1 1.4
2018-Jul-17 00:30N 30°13' W 093°16'5 4.7
2018-Jul-16 23:30N 30°09' W 093°20'1 2.4
2018-Jul-16 23:00N 30°08' W 093°20'1 2.5
2018-Jul-16 22:30N 30°07' W 093°20'2 4.7
2018-Jul-16 22:00N 30°05' W 093°20'2 3.7
2018-Jul-16 21:30N 30°04' W 093°22'2 4.0
2018-Jul-16 21:00N 30°04' W 093°24'2 3.7
2018-Jul-16 20:30N 30°04' W 093°26'2 3.7
2018-Jul-16 20:00N 30°04' W 093°28'2 3.7
2018-Jul-16 19:30N 30°04' W 093°31'2 3.1
2018-Jul-16 19:00N 30°04' W 093°32'3 5.2
2018-Jul-16 18:30N 30°04' W 093°35'3 5.6
2018-Jul-16 18:00N 30°04' W 093°39'3 6.0
2018-Jul-16 17:30N 30°03' W 093°42'1 2.8
2018-Jul-16 17:00N 30°03' W 093°44'3 6.2
2018-Jul-16 16:30N 30°00' W 093°46'3 7.0
2018-Jul-16 16:00N 29°59' W 093°49'3 5.2
2018-Jul-16 15:30N 29°57' W 093°52'4 8.0
2018-Jul-16 15:00N 29°54' W 093°54'4 8.3
2018-Jul-16 14:30N 29°50' W 093°57'2 3.7
2018-Jul-16 14:00N 29°49' W 093°59'2 3.6
2018-Jul-16 13:30N 29°48' W 094°00'2 4.5
2018-Jul-16 13:00N 29°46' W 094°02'2 4.5
2018-Jul-16 12:30N 29°45' W 094°04'2 4.6
2018-Jul-16 12:00N 29°44' W 094°06'2 4.5
2018-Jul-16 11:30N 29°42' W 094°08'2 4.5
2018-Jul-16 11:00N 29°41' W 094°11'2 4.7
2018-Jul-16 10:31N 29°40' W 094°13'2 4.7
2018-Jul-16 10:01N 29°39' W 094°15'2 4.7
2018-Jul-16 09:30N 29°38' W 094°18'2 4.7
2018-Jul-16 09:00N 29°37' W 094°20'2 4.7
2018-Jul-16 08:29N 29°36' W 094°23'2 4.1
2018-Jul-16 08:00N 29°35' W 094°25'2 3.8
2018-Jul-16 07:28N 29°34' W 094°26'2 4.4
2018-Jul-16 06:59N 29°33' W 094°28'2 4.4
2018-Jul-16 06:30N 29°31' W 094°30'1 2.7
2018-Jul-16 06:00N 29°31' W 094°32'1 1.1
2018-Jul-16 05:29N 29°30' W 094°32'2 4.8
2018-Jul-16 05:00N 29°30' W 094°35'2 3.9
2018-Jul-16 04:25N 29°29' W 094°37'2 3.4
2018-Jul-16 03:57N 29°28' W 094°39'3 4.6
2018-Jul-16 03:18N 29°27' W 094°42'2 4.3
2018-Jul-16 02:55N 29°26' W 094°43'1 3.1
2018-Jul-16 02:28N 29°25' W 094°44'2 3.6
2018-Jul-16 02:00N 29°23' W 094°46'3 5.1
2018-Jul-16 01:30N 29°22' W 094°48'3 6.4
2018-Jul-16 00:59N 29°20' W 094°51'3 6.4
2018-Jul-16 00:30N 29°17' W 094°53'3 5.4
2018-Jul-16 00:00N 29°17' W 094°57'2 4.0
2018-Jul-15 23:30N 29°17' W 094°59'0 0.4
2018-Jul-15 23:00N 29°16' W 094°59'1 2.3
2018-Jul-15 22:30N 29°16' W 094°60'3 5.2
2018-Jul-15 22:00N 29°14' W 095°02'2 4.9
2018-Jul-15 21:30N 29°12' W 095°04'3 5.3
2018-Jul-15 21:00N 29°10' W 095°06'3 5.5
2018-Jul-15 20:30N 29°09' W 095°09'3 5.4
2018-Jul-15 20:00N 29°07' W 095°11'2 4.4
2018-Jul-15 19:30N 29°05' W 095°12'2 3.3
2018-Jul-15 19:00N 29°04' W 095°13'2 5.0
2018-Jul-15 18:30N 29°01' W 095°14'3 5.4
2018-Jul-15 18:00N 28°59' W 095°16'3 4.7
2018-Jul-15 17:23N 28°57' W 095°18'5 2.9
2018-Jul-15 15:41N 28°54' W 095°23'1 0.6
2018-Jul-15 14:39N 28°54' W 095°23'  

Dump ship's entire track history